Time;durP1;ratioP1;P1;durP2;ratioP2;P2;SDS_P1;SDS_P2;PMS_P1;PMS_P2;Temp;Humidity;BMP_temperature;BMP_pressure;BME280_temperature;BME280_humidity;BME280_pressure;Samples;Min_cycle;Max_cycle;Signal;HPM_P1;HPM_P2
2022/12/21 00:01:27;;;;;;;19.98;7.80;;;;;;;7.51;100.00;100455.03;6052408;28;20042;-75
2022/12/21 00:04:22;;;;;;;16.08;7.80;;;;;;;7.46;100.00;100458.06;6051739;28;20029;-77
2022/12/21 00:07:18;;;;;;;13.55;6.57;;;;;;;7.44;100.00;100460.03;6051779;28;20037;-74
2022/12/21 00:10:13;;;;;;;17.03;7.13;;;;;;;7.33;100.00;100433.72;6052514;28;20033;-74
2022/12/21 00:13:08;;;;;;;17.40;7.20;;;;;;;7.35;100.00;100441.50;6051333;28;20030;-75
2022/12/21 00:16:09;;;;;;;17.27;7.40;;;;;;;7.28;100.00;100433.28;6051248;28;20041;-74
2022/12/21 00:19:04;;;;;;;17.50;7.90;;;;;;;7.29;100.00;100444.66;6052125;28;20034;-75
2022/12/21 00:21:59;;;;;;;20.52;8.02;;;;;;;7.23;100.00;100437.28;6051160;28;20108;-74
2022/12/21 00:24:55;;;;;;;14.93;7.17;;;;;;;7.22;100.00;100438.25;6051934;28;20493;-76
2022/12/21 00:27:50;;;;;;;18.27;8.80;;;;;;;7.34;100.00;100458.31;6051498;28;20046;-74
2022/12/21 00:30:45;;;;;;;16.33;8.40;;;;;;;7.29;100.00;100447.28;6051729;28;20037;-74
2022/12/21 00:33:41;;;;;;;23.50;8.55;;;;;;;7.35;100.00;100450.25;6050949;28;20053;-73
2022/12/21 00:36:37;;;;;;;19.42;10.38;;;;;;;7.32;100.00;100433.84;6050358;28;20398;-75
2022/12/21 00:39:32;;;;;;;19.13;8.67;;;;;;;7.37;100.00;100437.75;6051253;28;20037;-76
2022/12/21 00:42:27;;;;;;;16.83;8.83;;;;;;;7.29;100.00;100431.47;6050724;28;20021;-77
2022/12/21 00:45:23;;;;;;;19.67;8.53;;;;;;;7.33;100.00;100446.06;6051163;28;20069;-75
2022/12/21 00:48:18;;;;;;;20.43;10.03;;;;;;;7.25;100.00;100422.16;6050810;28;20042;-73
2022/12/21 00:51:16;;;;;;;17.90;9.17;;;;;;;7.25;100.00;100438.00;6051314;28;20041;-76
2022/12/21 00:54:11;;;;;;;20.15;9.35;;;;;;;7.25;100.00;100424.81;6050753;28;20029;-76
2022/12/21 00:57:07;;;;;;;20.37;8.93;;;;;;;7.21;100.00;100429.50;6051126;28;20045;-73
2022/12/21 01:00:03;;;;;;;18.50;8.80;;;;;;;7.18;100.00;100437.66;6051052;28;20526;-74
2022/12/21 01:02:58;;;;;;;18.58;9.85;;;;;;;7.18;100.00;100427.13;6050368;28;20421;-76
2022/12/21 01:05:54;;;;;;;21.10;10.03;;;;;;;7.17;100.00;100426.28;6051210;28;20076;-76
2022/12/21 01:08:49;;;;;;;18.73;9.25;;;;;;;7.27;100.00;100434.25;6051110;28;20026;-74
2022/12/21 01:11:45;;;;;;;23.58;9.98;;;;;;;7.31;100.00;100448.00;6050601;28;20026;-73
2022/12/21 01:14:40;;;;;;;20.27;9.27;;;;;;;7.22;100.00;100418.00;6050006;28;20091;-74
2022/12/21 01:17:35;;;;;;;21.50;9.63;;;;;;;7.30;100.00;100447.19;6050145;28;20046;-74
2022/12/21 01:20:31;;;;;;;16.30;8.03;;;;;;;7.25;100.00;100444.09;6050974;28;20069;-76
2022/12/21 01:23:26;;;;;;;20.53;9.37;;;;;;;7.24;100.00;100446.84;6049688;28;20030;-73
2022/12/21 01:26:22;;;;;;;19.10;9.87;;;;;;;7.25;100.00;100449.38;6049471;28;20392;-74
2022/12/21 01:29:17;;;;;;;19.65;9.77;;;;;;;7.17;100.00;100434.19;6050128;28;20104;-73
2022/12/21 01:32:13;;;;;;;19.73;9.70;;;;;;;7.34;100.00;100460.94;6049296;28;20049;-73
2022/12/21 01:35:08;;;;;;;21.87;9.73;;;;;;;7.34;100.00;100468.84;6050444;28;20030;-75
2022/12/21 01:38:03;;;;;;;21.27;10.40;;;;;;;7.23;100.00;100445.19;6050161;28;20038;-73
2022/12/21 01:40:59;;;;;;;18.85;9.30;;;;;;;7.31;100.00;100458.56;6050072;28;20034;-73
2022/12/21 01:44:00;;;;;;;17.70;9.23;;;;;;;7.36;100.00;100462.47;6049654;28;20033;-74
2022/12/21 01:46:56;;;;;;;19.65;10.38;;;;;;;7.32;100.00;100453.16;6049811;28;20391;-72
2022/12/21 01:49:55;;;;;;;22.40;10.53;;;;;;;7.21;100.00;100440.03;6049955;28;20030;-74
2022/12/21 01:52:51;;;;;;;19.27;10.25;;;;;;;7.27;100.00;100451.88;6049350;28;20030;-74
2022/12/21 01:55:49;;;;;;;18.20;9.57;;;;;;;7.31;100.00;100463.84;6050134;28;20038;-75
2022/12/21 01:58:45;;;;;;;24.02;11.63;;;;;;;7.24;100.00;100452.13;6048830;28;20422;-73
2022/12/21 02:01:40;;;;;;;20.95;10.15;;;;;;;7.32;100.00;100465.50;6049742;28;20066;-75
2022/12/21 02:04:35;;;;;;;23.40;10.93;;;;;;;7.23;100.00;100445.19;6028139;28;20041;-76
2022/12/21 02:07:32;;;;;;;20.07;9.83;;;;;;;7.22;100.00;100443.53;6049467;28;20063;-75
2022/12/21 02:10:27;;;;;;;22.45;11.07;;;;;;;7.24;100.00;100441.56;6048762;28;20697;-76
2022/12/21 02:13:23;;;;;;;22.77;11.43;;;;;;;7.20;100.00;100444.47;6048945;28;20041;-76
2022/12/21 02:16:35;;;;;;;20.10;9.27;;;;;;;7.26;100.00;100450.19;6049187;28;20026;-73
2022/12/21 02:19:49;;;;;;;21.60;9.98;;;;;;;7.35;100.00;100466.06;6031674;28;20040;-74
2022/12/21 02:23:20;;;;;;;22.13;10.00;;;;;;;7.35;100.00;100470.50;6048418;28;20201;-73
2022/12/21 02:26:42;;;;;;;18.02;8.77;;;;;;;7.29;100.00;100457.84;6015674;28;20030;-75
2022/12/21 02:30:25;;;;;;;20.13;8.93;;;;;;;7.33;100.00;100461.91;6049581;28;20034;-75
2022/12/21 02:33:31;;;;;;;20.33;9.77;;;;;;;7.31;100.00;100453.28;6044939;28;20471;-72
2022/12/21 02:36:33;;;;;;;21.50;10.07;;;;;;;7.35;100.00;100459.97;6032201;28;20026;-72
2022/12/21 02:39:58;;;;;;;19.63;9.48;;;;;;;7.31;100.00;100454.09;6050912;28;20092;-72
2022/12/21 02:47:08;;;;;;;20.20;9.43;;;;;;;7.32;100.00;100445.22;5958127;29;20035;-75
2022/12/21 02:50:11;;;;;;;19.17;8.32;;;;;;;7.36;100.00;100465.13;5953839;28;20042;-73
2022/12/21 02:53:11;;;;;;;18.92;8.82;;;;;;;7.43;100.00;100478.59;6068334;28;20034;-73
2022/12/21 02:56:14;;;;;;;19.17;9.43;;;;;;;7.32;100.00;100463.69;6052615;28;20113;-74
2022/12/21 02:59:12;;;;;;;16.00;9.07;;;;;;;7.36;100.00;100456.38;6054024;28;20037;-75
2022/12/21 03:02:19;;;;;;;18.65;9.57;;;;;;;7.47;100.00;100480.03;6052949;28;20069;-74
2022/12/21 03:05:37;;;;;;;16.67;7.95;;;;;;;7.48;100.00;100482.50;6054052;28;20084;-74
2022/12/21 03:08:57;;;;;;;16.20;8.38;;;;;;;7.41;100.00;100454.16;6042762;28;20056;-75
2022/12/21 03:12:28;;;;;;;17.77;8.95;;;;;;;7.45;100.00;100476.66;6052960;28;20049;-74
2022/12/21 03:15:54;;;;;;;15.48;8.35;;;;;;;7.50;100.00;100463.94;6053571;28;20124;-75
2022/12/21 03:18:58;;;;;;;16.38;8.48;;;;;;;7.42;100.00;100461.94;6053056;28;20044;-74
2022/12/21 03:21:57;;;;;;;18.55;8.75;;;;;;;7.38;100.00;100459.69;6052815;28;20064;-73
2022/12/21 03:24:59;;;;;;;17.27;8.50;;;;;;;7.35;100.00;100449.41;6053009;28;20088;-72
2022/12/21 03:28:00;;;;;;;16.00;8.48;;;;;;;7.35;100.00;100449.41;6052181;28;20041;-72
2022/12/21 03:30:59;;;;;;;16.40;7.82;;;;;;;7.40;100.00;100461.22;6051873;28;20049;-72
2022/12/21 03:34:00;;;;;;;14.57;7.68;;;;;;;7.39;100.00;100464.03;6051507;28;20042;-72
2022/12/21 03:37:00;;;;;;;18.20;8.88;;;;;;;7.30;100.00;100451.59;6054010;28;20498;-73
2022/12/21 03:40:17;;;;;;;21.38;9.15;;;;;;;7.37;100.00;100468.56;6036551;28;20061;-72
2022/12/21 03:43:19;;;;;;;16.30;8.18;;;;;;;7.36;100.00;100464.28;6067183;28;20121;-74
2022/12/21 03:46:20;;;;;;;17.38;9.52;;;;;;;7.37;100.00;100458.00;6052911;28;20332;-73
2022/12/21 03:49:23;;;;;;;20.45;8.60;;;;;;;7.29;100.00;100440.22;6035173;28;20045;-72
2022/12/21 03:52:21;;;;;;;17.08;8.80;;;;;;;7.30;100.00;100446.34;6033621;28;20065;-73
2022/12/21 03:55:29;;;;;;;17.25;9.07;;;;;;;7.42;100.00;100453.22;6052712;28;20038;-74
2022/12/21 03:58:24;;;;;;;;;;;;;;;7.41;100.00;100465.56;6035401;28;20422;-73
2022/12/21 04:01:51;;;;;;;19.90;9.40;;;;;;;7.43;100.00;100458.34;6052634;28;19917;-75
2022/12/21 04:05:00;;;;;;;17.70;8.80;;;;;;;7.43;100.00;100468.03;6034749;28;20033;-73
2022/12/21 04:07:56;;;;;;;18.02;8.98;;;;;;;7.43;100.00;100455.69;6034522;28;20045;-73
2022/12/21 04:10:52;;;;;;;20.52;9.85;;;;;;;7.36;100.00;100438.75;6051840;28;20038;-73
2022/12/21 04:13:47;;;;;;;21.25;9.77;;;;;;;7.42;100.00;100440.81;6034047;28;20475;-74
2022/12/21 04:16:42;;;;;;;17.83;9.07;;;;;;;7.43;100.00;100437.22;6051643;28;20041;-75
2022/12/21 04:29:21;;;;;;;21.50;10.30;;;;;;;7.41;100.00;100448.88;6051319;28;20041;-73
2022/12/21 04:32:17;;;;;;;18.03;9.80;;;;;;;7.43;100.00;100445.16;6051196;28;20368;-73
2022/12/21 04:35:12;;;;;;;19.90;9.50;;;;;;;7.45;100.00;100447.63;6051796;28;20022;-73
2022/12/21 04:38:07;;;;;;;19.87;9.70;;;;;;;7.37;100.00;100429.00;6051729;28;20207;-73
2022/12/21 04:41:03;;;;;;;21.43;11.77;;;;;;;7.55;100.00;100451.16;6051558;28;20576;-73
2022/12/21 04:43:58;;;;;;;19.17;8.90;;;;;;;7.47;100.00;100432.53;6047887;28;20099;-73
2022/12/21 04:46:53;;;;;;;18.70;9.20;;;;;;;7.60;100.00;100435.78;6051770;28;20426;-74
2022/12/21 04:49:48;;;;;;;18.37;9.83;;;;;;;7.52;100.00;100412.69;6051236;28;20036;-74
2022/12/21 04:52:44;;;;;;;22.70;11.10;;;;;;;7.63;100.00;100448.69;6050768;28;20034;-73
2022/12/21 04:55:43;;;;;;;18.00;9.47;;;;;;;7.56;100.00;100429.06;6050841;28;20100;-73
2022/12/21 04:58:39;;;;;;;18.98;9.57;;;;;;;7.56;100.00;100437.84;6051092;28;20140;-74
2022/12/21 05:01:35;;;;;;;18.33;9.32;;;;;;;7.62;100.00;100457.56;6051273;28;20026;-74
2022/12/21 05:04:30;;;;;;;18.27;8.97;;;;;;;7.54;100.00;100433.66;6049474;28;20041;-72
2022/12/21 05:07:25;;;;;;;16.93;8.90;;;;;;;7.57;100.00;100449.22;6051001;28;20061;-73
2022/12/21 05:10:20;;;;;;;17.93;9.73;;;;;;;7.51;100.00;100441.84;6050782;28;20334;-74
2022/12/21 05:13:16;;;;;;;21.83;10.03;;;;;;;7.54;100.00;100446.84;6049591;28;20034;-73
2022/12/21 05:16:14;;;;;;;20.60;11.43;;;;;;;7.49;100.00;100443.78;6050767;28;20471;-71
2022/12/21 05:19:10;;;;;;;21.63;10.90;;;;;;;7.48;100.00;100437.66;6050297;28;20522;-74
2022/12/21 05:22:05;;;;;;;20.67;11.10;;;;;;;7.50;100.00;100446.28;6048964;28;20048;-72
2022/12/21 05:25:00;;;;;;;19.23;9.50;;;;;;;7.47;100.00;100432.53;6050751;28;20042;-74
2022/12/21 05:27:56;;;;;;;23.65;10.82;;;;;;;7.53;100.00;100443.38;6050172;28;20407;-73
2022/12/21 05:30:51;;;;;;;20.90;9.67;;;;;;;7.59;100.00;100452.56;6050538;28;20041;-74
2022/12/21 05:33:46;;;;;;;17.63;9.27;;;;;;;7.54;100.00;100438.94;6049108;28;20033;-73
2022/12/21 05:36:42;;;;;;;19.30;9.30;;;;;;;7.57;100.00;100438.66;6050435;28;20076;-74
2022/12/21 05:39:37;;;;;;;19.83;9.97;;;;;;;7.49;100.00;100441.97;6050296;28;20058;-76
2022/12/21 05:42:32;;;;;;;18.57;9.43;;;;;;;7.55;100.00;100446.72;6049439;28;20033;-73
2022/12/21 05:45:27;;;;;;;19.13;9.90;;;;;;;7.46;100.00;100431.69;6050411;28;20494;-72
2022/12/21 05:48:23;;;;;;;21.47;10.57;;;;;;;7.42;100.00;100429.47;6063654;28;20037;-73
2022/12/21 05:51:18;;;;;;;21.50;10.50;;;;;;;7.55;100.00;100444.09;6060259;28;20045;-76
2022/12/21 05:54:15;;;;;;;22.80;10.40;;;;;;;7.50;100.00;100441.00;6049297;28;20483;-73
2022/12/21 05:57:10;;;;;;;20.05;10.57;;;;;;;7.53;100.00;100438.09;6049791;28;20076;-74
2022/12/21 06:00:06;;;;;;;22.67;9.80;;;;;;;7.46;100.00;100434.34;6050039;28;20112;-74
2022/12/21 06:03:01;;;;;;;21.90;10.52;;;;;;;7.48;100.00;100437.66;6048882;28;20626;-75
2022/12/21 06:06:11;;;;;;;22.43;10.13;;;;;;;7.60;100.00;100444.53;6049887;28;20117;-74
2022/12/21 06:09:06;;;;;;;21.25;10.88;;;;;;;7.54;100.00;100441.56;6048433;28;20874;-74
2022/12/21 06:12:02;;;;;;;22.95;10.68;;;;;;;7.50;100.00;100441.00;6048048;28;20045;-75
2022/12/21 06:14:57;;;;;;;18.70;9.70;;;;;;;7.47;100.00;100443.09;6048204;28;20022;-74
2022/12/21 06:17:52;;;;;;;21.37;9.83;;;;;;;7.54;100.00;100444.22;6047376;28;20061;-75
2022/12/21 06:20:51;;;;;;;22.63;10.00;;;;;;;7.57;100.00;100454.50;6049952;28;20038;-72
2022/12/21 06:23:47;;;;;;;24.33;11.45;;;;;;;7.48;100.00;100444.75;6048070;28;20398;-75
2022/12/21 06:26:43;;;;;;;21.30;10.32;;;;;;;7.51;100.00;100453.22;6049778;28;20038;-74
2022/12/21 06:29:38;;;;;;;24.33;11.57;;;;;;;7.48;100.00;100447.38;6048932;28;20033;-75
2022/12/21 06:32:33;;;;;;;22.73;11.07;;;;;;;7.64;100.00;100455.63;6044323;28;20040;-74
2022/12/21 06:35:29;;;;;;;25.63;11.50;;;;;;;7.64;100.00;100458.25;6047749;28;20480;-72
2022/12/21 06:38:24;;;;;;;27.13;11.77;;;;;;;7.56;100.00;100447.53;6049009;28;20498;-72
2022/12/21 06:41:20;;;;;;;23.40;10.68;;;;;;;7.60;100.00;100443.69;6049268;28;20268;-73
2022/12/21 06:44:15;;;;;;;24.30;12.02;;;;;;;7.62;100.00;100466.34;6047871;28;20041;-74
2022/12/21 06:47:11;;;;;;;21.00;10.53;;;;;;;7.52;100.00;100456.72;6048281;28;20036;-74
2022/12/21 06:50:07;;;;;;;25.33;10.80;;;;;;;7.48;100.00;100455.28;6049261;28;20030;-74
2022/12/21 06:53:02;;;;;;;23.90;10.32;;;;;;;7.58;100.00;100482.56;6050727;28;20036;-72
2022/12/21 06:56:11;;;;;;;22.37;10.80;;;;;;;7.59;100.00;100473.66;6052086;28;20041;-73
2022/12/21 06:59:07;;;;;;;22.80;9.90;;;;;;;7.56;100.00;100479.22;6049477;28;20026;-73
2022/12/21 07:02:03;;;;;;;24.20;11.20;;;;;;;7.42;100.00;100484.88;6048199;28;20825;-75
2022/12/21 07:04:58;;;;;;;20.58;9.50;;;;;;;7.27;100.00;100476.44;6049061;28;20042;-73
2022/12/21 07:07:53;;;;;;;20.00;10.60;;;;;;;7.33;100.00;100483.84;6048795;28;20481;-73
2022/12/21 07:10:48;;;;;;;20.87;10.30;;;;;;;7.28;100.00;100493.09;6053487;28;20029;-73
2022/12/21 07:13:45;;;;;;;22.23;10.20;;;;;;;7.36;100.00;100503.84;6047768;28;20041;-75
2022/12/21 07:16:41;;;;;;;24.00;10.52;;;;;;;7.23;100.00;100490.03;6047278;28;20483;-72
2022/12/21 07:19:36;;;;;;;24.23;11.93;;;;;;;7.18;100.00;100485.97;6048309;28;20048;-75
2022/12/21 07:22:31;;;;;;;19.87;10.10;;;;;;;7.31;100.00;100495.50;6048034;28;20061;-74
2022/12/21 07:25:27;;;;;;;21.87;11.03;;;;;;;7.32;100.00;100502.41;6048832;28;20042;-73
2022/12/21 07:28:23;;;;;;;22.08;10.80;;;;;;;7.28;100.00;100506.28;6050402;28;20434;-75
2022/12/21 07:31:22;;;;;;;21.23;10.50;;;;;;;7.31;100.00;100516.59;6053121;28;20033;-73
2022/12/21 07:34:17;;;;;;;23.08;10.38;;;;;;;7.19;100.00;100506.09;6051831;28;20113;-75
2022/12/21 07:37:12;;;;;;;23.00;10.43;;;;;;;7.20;100.00;100505.13;6052814;28;20092;-74
2022/12/21 07:40:09;;;;;;;21.23;9.83;;;;;;;7.31;100.00;100506.03;6052746;28;20034;-73
2022/12/21 07:43:09;;;;;;;26.23;12.48;;;;;;;7.29;100.00;100503.50;6051771;28;20418;-71
2022/12/21 07:46:04;;;;;;;22.58;10.77;;;;;;;7.20;100.00;100491.94;6051893;28;20073;-73
2022/12/21 07:48:59;;;;;;;24.77;10.43;;;;;;;7.23;100.00;100492.66;6052365;28;20087;-74
2022/12/21 07:51:55;;;;;;;25.27;12.63;;;;;;;7.30;100.00;100502.56;6051766;28;20372;-73
2022/12/21 07:54:50;;;;;;;26.77;11.20;;;;;;;7.28;100.00;100488.69;6051717;28;20046;-75
2022/12/21 07:57:45;;;;;;;25.50;12.43;;;;;;;7.33;100.00;100477.72;6051428;28;20116;-75
2022/12/21 08:00:41;;;;;;;26.57;12.13;;;;;;;7.32;100.00;100481.31;6052001;28;20498;-74
2022/12/21 08:03:37;;;;;;;27.50;12.67;;;;;;;7.25;100.00;100480.19;6051353;28;20038;-72
2022/12/21 08:06:33;;;;;;;24.58;11.55;;;;;;;7.36;100.00;100493.28;6052224;28;20026;-73
2022/12/21 08:09:28;;;;;;;31.52;14.50;;;;;;;7.29;100.00;100497.41;6052085;28;20387;-72
2022/12/21 08:12:24;;;;;;;36.40;15.70;;;;;;;7.18;100.00;100485.97;6050921;28;20030;-71
2022/12/21 08:15:21;;;;;;;35.37;14.77;;;;;;;7.20;100.00;100486.66;6051926;28;20176;-71
2022/12/21 08:18:16;;;;;;;35.90;15.15;;;;;;;7.31;100.00;100495.50;6051138;28;20441;-73
2022/12/21 08:21:11;;;;;;;34.10;14.13;;;;;;;7.35;100.00;100492.44;6051459;28;20064;-75
2022/12/21 08:24:07;;;;;;;33.88;14.60;;;;;;;7.33;100.00;100498.81;6050268;28;20026;-74
2022/12/21 08:27:02;;;;;;;34.17;14.27;;;;;;;7.28;100.00;100482.56;6051377;28;20466;-73
2022/12/21 08:29:57;;;;;;;33.47;13.90;;;;;;;7.25;100.00;100473.09;6051676;28;20299;-75
2022/12/21 08:32:53;;;;;;;35.40;16.23;;;;;;;7.25;100.00;100475.75;6050310;28;20092;-72
2022/12/21 08:35:48;;;;;;;32.50;14.33;;;;;;;7.42;100.00;100482.22;6050598;28;20163;-74
2022/12/21 08:38:44;;;;;;;34.33;14.77;;;;;;;7.45;100.00;100481.94;6050269;28;20495;-70
2022/12/21 08:41:39;;;;;;;33.65;15.50;;;;;;;7.43;100.00;100473.31;6050779;28;20029;-72
2022/12/21 08:44:34;;;;;;;39.37;16.83;;;;;;;7.45;100.00;100474.00;6050615;28;20432;-71
2022/12/21 08:47:30;;;;;;;35.27;14.27;;;;;;;7.46;100.00;100470.44;6050931;28;20273;-73
2022/12/21 08:50:25;;;;;;;35.57;15.03;;;;;;;7.46;100.00;100465.16;6051514;28;20457;-73
2022/12/21 08:53:21;;;;;;;35.77;14.73;;;;;;;7.40;100.00;100457.75;6050463;28;20026;-72
2022/12/21 08:56:17;;;;;;;39.03;14.75;;;;;;;7.40;100.00;100463.03;6050997;28;20121;-72
2022/12/21 08:59:12;;;;;;;37.95;15.40;;;;;;;7.39;100.00;100456.09;6051347;28;20057;-72
2022/12/21 09:02:10;;;;;;;39.03;16.50;;;;;;;7.47;100.00;100474.75;6050134;28;20399;-75
2022/12/21 09:05:05;;;;;;;40.13;15.75;;;;;;;7.44;100.00;100472.38;6051335;28;20041;-72
2022/12/21 09:08:01;;;;;;;36.97;15.98;;;;;;;7.44;100.00;100464.44;6051232;28;20041;-73
2022/12/21 09:11:04;;;;;;;35.83;14.27;;;;;;;7.55;100.00;100467.00;6050783;28;20088;-73
2022/12/21 09:14:00;;;;;;;33.78;13.90;;;;;;;7.60;100.00;100475.34;6050162;28;20025;-73
2022/12/21 09:16:56;;;;;;;34.53;14.18;;;;;;;7.58;100.00;100477.28;6050368;28;20030;-73
2022/12/21 09:19:51;;;;;;;36.38;14.25;;;;;;;7.65;100.00;100481.91;6050638;28;20521;-71
2022/12/21 09:22:46;;;;;;;30.47;12.63;;;;;;;7.66;100.00;100482.75;6049898;28;20038;-73
2022/12/21 09:25:42;;;;;;;36.30;16.02;;;;;;;7.64;100.00;100480.22;6050329;28;20026;-72
2022/12/21 09:28:37;;;;;;;32.63;13.43;;;;;;;7.57;100.00;100465.06;6050247;28;20475;-73
2022/12/21 09:31:32;;;;;;;33.10;14.60;;;;;;;7.56;100.00;100463.38;6049879;28;20040;-71
2022/12/21 09:34:28;;;;;;;38.60;15.23;;;;;;;7.68;100.00;100478.16;6049663;28;20038;-72
2022/12/21 09:37:23;;;;;;;35.80;15.47;;;;;;;7.71;100.00;100485.81;6050258;28;20273;-72
2022/12/21 09:40:19;;;;;;;34.67;14.77;;;;;;;7.67;100.00;100489.66;6048428;28;20045;-71
2022/12/21 09:43:27;;;;;;;36.47;14.13;;;;;;;7.71;100.00;100491.94;6048179;28;20034;-72
2022/12/21 09:46:22;;;;;;;35.88;15.90;;;;;;;7.59;100.00;100468.38;6033488;28;20427;-74
2022/12/21 09:49:23;;;;;;;39.75;13.88;;;;;;;7.62;100.00;100468.13;6047478;28;20056;-74
2022/12/21 09:52:24;;;;;;;30.10;13.60;;;;;;;7.76;100.00;100488.88;6046114;28;20541;-72
2022/12/21 09:55:21;;;;;;;29.30;14.23;;;;;;;7.81;100.00;100478.75;6047927;28;20069;-70
2022/12/21 09:58:32;;;;;;;26.13;12.30;;;;;;;7.82;100.00;100477.78;6049311;28;20026;-73
2022/12/21 10:01:27;;;;;;;28.83;11.77;;;;;;;7.86;100.00;100481.81;6047962;28;20483;-74
2022/12/21 10:04:40;;;;;;;30.60;11.77;;;;;;;7.91;100.00;100479.59;6046870;28;20049;-73
2022/12/21 10:08:36;;;;;;;24.67;10.82;;;;;;;7.88;100.00;100456.13;6033843;28;20040;-70
2022/12/21 10:11:37;;;;;;;23.48;10.68;;;;;;;7.92;100.00;100470.72;6006190;28;20062;-70
2022/12/21 10:14:44;;;;;;;23.35;10.88;;;;;;;7.94;100.00;100467.94;6048739;28;20030;-71
2022/12/21 10:18:03;;;;;;;25.90;11.77;;;;;;;7.96;100.00;100468.66;6060094;28;20062;-72
2022/12/21 10:21:27;;;;;;;23.42;10.45;;;;;;;7.92;100.00;100470.72;6048489;28;20042;-73
2022/12/21 10:24:26;;;;;;;24.27;11.18;;;;;;;7.84;100.00;100465.28;6046037;28;20129;-72
2022/12/21 10:27:54;;;;;;;29.63;13.30;;;;;;;7.80;100.00;100455.97;6030992;28;20034;-72
2022/12/21 10:30:55;;;;;;;29.23;12.57;;;;;;;7.83;100.00;100465.44;6045206;28;20152;-74
2022/12/21 10:33:54;;;;;;;30.00;13.95;;;;;;;7.81;100.00;100460.28;6029278;28;20041;-75
2022/12/21 10:36:54;;;;;;;31.95;14.35;;;;;;;7.76;100.00;100451.94;6048867;28;20038;-74
2022/12/21 10:39:54;;;;;;;32.05;12.75;;;;;;;7.79;100.00;100449.03;6048343;28;20042;-74
2022/12/21 10:42:50;;;;;;;37.05;14.90;;;;;;;7.72;100.00;100437.31;6030264;28;20045;-71
2022/12/21 10:45:45;;;;;;;33.00;14.07;;;;;;;7.73;100.00;100436.38;6046365;28;20038;-76
2022/12/21 10:48:41;;;;;;;31.80;13.07;;;;;;;7.83;100.00;100450.41;6047372;28;20056;-74
2022/12/21 10:51:36;;;;;;;30.57;13.43;;;;;;;7.86;100.00;100439.59;6049353;28;20026;-73
2022/12/21 10:54:31;;;;;;;27.27;12.67;;;;;;;7.93;100.00;100443.38;6048564;28;20526;-74
2022/12/21 10:57:29;;;;;;;30.37;12.90;;;;;;;7.98;100.00;100441.16;6045896;28;20038;-75
2022/12/21 11:00:26;;;;;;;32.05;14.15;;;;;;;7.95;100.00;100424.75;6048124;28;20069;-72
2022/12/21 11:03:31;;;;;;;30.83;13.32;;;;;;;7.99;100.00;100429.59;6049798;28;20079;-72
2022/12/21 11:06:26;;;;;;;29.70;13.00;;;;;;;8.02;100.00;100431.97;6052981;28;20475;-72
2022/12/21 11:09:35;;;;;;;27.80;11.53;;;;;;;8.15;100.00;100432.53;6049866;28;20096;-73
2022/12/21 11:12:31;;;;;;;32.92;13.43;;;;;;;8.10;100.00;100415.47;6049299;28;20030;-73
2022/12/21 11:15:26;;;;;;;29.52;13.13;;;;;;;8.19;100.00;100426.03;6051098;28;20666;-74
2022/12/21 11:18:33;;;;;;;33.93;12.50;;;;;;;8.12;100.00;100409.06;6050466;28;20026;-74
2022/12/21 11:21:33;;;;;;;27.52;12.32;;;;;;;8.14;100.00;100425.59;6049098;28;20547;-76
2022/12/21 11:24:38;;;;;;;34.25;15.63;;;;;;;8.04;100.00;100401.00;6049915;28;20116;-71
2022/12/21 11:27:34;;;;;;;31.73;13.60;;;;;;;7.99;100.00;100386.53;6065561;28;20632;-71
2022/12/21 11:30:33;;;;;;;31.33;12.85;;;;;;;8.06;100.00;100393.78;6052235;28;20034;-73
2022/12/21 11:33:29;;;;;;;35.53;14.50;;;;;;;7.97;100.00;100375.28;6038857;28;20056;-74
2022/12/21 11:36:25;;;;;;;33.67;15.07;;;;;;;8.05;100.00;100389.44;6035428;28;20141;-72
2022/12/21 11:39:23;;;;;;;31.80;13.40;;;;;;;8.18;100.00;100408.50;6040689;28;20475;-74
2022/12/21 11:42:20;;;;;;;28.63;12.98;;;;;;;8.24;100.00;100401.84;6052243;28;20261;-74
2022/12/21 11:45:21;;;;;;;25.98;12.20;;;;;;;8.24;100.00;100396.53;6052278;28;20426;-72
2022/12/21 11:48:44;;;;;;;28.20;12.38;;;;;;;8.31;100.00;100398.56;6052522;28;20025;-73
2022/12/21 11:52:10;;;;;;;28.60;13.00;;;;;;;8.33;100.00;100393.13;6052444;28;20034;-74
2022/12/21 11:55:47;;;;;;;26.55;11.35;;;;;;;8.43;100.00;100395.72;6044863;28;20048;-72
2022/12/21 11:59:10;;;;;;;28.42;11.82;;;;;;;8.34;100.00;100387.69;6051550;28;20064;-74
2022/12/21 12:02:30;;;;;;;24.27;10.77;;;;;;;8.30;100.00;100386.31;6052094;28;20393;-74
2022/12/21 12:05:50;;;;;;;26.92;10.65;;;;;;;8.32;100.00;100389.63;6052606;28;20033;-77
2022/12/21 12:09:39;;;;;;;22.02;10.23;;;;;;;8.50;100.00;100391.56;6052861;28;20038;-72
2022/12/21 12:12:48;;;;;;;21.30;9.80;;;;;;;8.59;100.00;100385.47;5979997;28;20035;-73
2022/12/21 12:16:12;;;;;;;22.52;9.75;;;;;;;8.51;100.00;100380.84;6034195;28;20037;-75
2022/12/21 12:19:14;;;;;;;21.00;8.90;;;;;;;8.55;100.00;100389.34;6052144;28;20041;-73
2022/12/21 12:22:28;;;;;;;21.58;10.38;;;;;;;8.51;100.00;100383.50;6051058;28;20034;-74
2022/12/21 12:25:56;;;;;;;22.38;9.15;;;;;;;8.51;100.00;100380.84;6038774;28;20041;-76
2022/12/21 12:28:55;;;;;;;24.67;10.48;;;;;;;8.51;100.00;100395.88;6050705;28;20057;-75
2022/12/21 12:31:56;;;;;;;23.08;9.85;;;;;;;8.53;100.00;100393.94;6050918;28;20040;-73
2022/12/21 12:34:59;;;;;;;;;;;;;;;8.56;100.00;100391.03;6051955;28;20046;-74
2022/12/21 12:38:33;;;;;;;20.73;9.07;;;;;;;8.46;100.00;100375.16;6034614;28;19949;-74
2022/12/21 12:42:10;;;;;;;19.77;9.30;;;;;;;8.58;100.00;100389.06;6041617;28;20057;-73
2022/12/21 12:45:27;;;;;;;17.95;7.95;;;;;;;8.70;100.00;100377.34;6021269;28;20046;-72
2022/12/21 12:48:50;;;;;;;15.18;7.63;;;;;;;8.78;100.00;100372.19;6049761;28;20441;-75
2022/12/21 12:51:58;;;;;;;15.60;6.95;;;;;;;8.72;100.00;100370.13;6049957;28;20045;-73
2022/12/21 12:55:06;;;;;;;19.73;8.07;;;;;;;8.82;100.00;100381.50;6050025;28;20061;-74
2022/12/21 12:58:08;;;;;;;16.08;7.18;;;;;;;8.80;100.00;100367.59;6041183;28;20037;-74
2022/12/21 13:01:18;;;;;;;18.48;8.20;;;;;;;8.80;100.00;100368.44;6042872;28;20061;-75
2022/12/21 13:04:28;;;;;;;14.80;7.82;;;;;;;8.84;100.00;100384.84;6033435;28;20021;-73
2022/12/21 13:08:14;;;;;;;15.55;7.15;;;;;;;8.74;100.00;100368.16;6050298;28;20548;-75
2022/12/21 13:11:18;;;;;;;11.52;6.15;;;;;;;8.80;100.00;100362.31;6025986;28;20084;-76
2022/12/21 13:14:22;;;;;;;12.60;6.43;;;;;;;8.89;100.00;100359.63;6022310;28;20493;-76
2022/12/21 13:17:39;;;;;;;15.15;7.22;;;;;;;8.94;100.00;100351.28;6032542;28;20438;-75
2022/12/21 13:20:35;;;;;;;13.50;6.20;;;;;;;9.07;100.00;100365.00;6050022;28;20045;-75
2022/12/21 13:23:34;;;;;;;14.10;6.45;;;;;;;9.01;100.00;100375.31;6049424;28;20078;-75
2022/12/21 13:26:39;;;;;;;15.27;7.20;;;;;;;9.01;100.00;100364.75;6032424;28;20451;-74
2022/12/21 13:29:44;;;;;;;13.25;6.25;;;;;;;9.02;100.00;100364.63;6049606;28;20120;-75
2022/12/21 13:32:47;;;;;;;16.50;7.28;;;;;;;8.93;100.00;100354.91;6048884;28;20061;-74
2022/12/21 13:35:54;;;;;;;15.05;7.40;;;;;;;8.92;100.00;100353.22;6032904;28;20034;-75
2022/12/21 13:39:10;;;;;;;;;;;;;;;8.97;100.00;100366.84;6049504;28;20038;-75
2022/12/21 13:42:17;;;;;;;13.73;6.30;;;;;;;8.84;100.00;100359.22;6065119;28;19941;-75
2022/12/21 13:45:16;;;;;;;18.30;7.43;;;;;;;8.91;100.00;100378.00;6017812;28;20049;-75
2022/12/21 13:48:14;;;;;;;15.10;6.88;;;;;;;8.83;100.00;100368.13;6032606;28;20513;-74
2022/12/21 13:51:48;;;;;;;15.95;7.10;;;;;;;8.76;100.00;100371.50;6047955;28;20034;-75
2022/12/21 13:54:52;;;;;;;13.80;7.22;;;;;;;8.67;100.00;100373.19;6047880;28;20038;-75
2022/12/21 13:58:08;;;;;;;11.93;6.07;;;;;;;8.57;100.00;100375.00;6047612;28;20053;-76
2022/12/21 14:01:31;;;;;;;14.65;7.10;;;;;;;8.56;100.00;100380.44;6046960;28;20109;-74
2022/12/21 14:04:41;;;;;;;13.18;6.78;;;;;;;8.50;100.00;100378.38;6032859;28;20064;-75